Time,TemperatureF,DewpointF,PressureIn,WindDirection,WindDirectionDegrees,WindSpeedMPH,WindSpeedGustMPH,Humidity,HourlyPrecipIn,Conditions,Clouds,dailyrainin,SolarRadiationWatts/m^2,SoftwareType,DateUTC
2013-05-08 00:00:00,54.9,50.2,29.94,South,187,0.0,0.0,84,0.00,,---,0.00,0.00,VWS V14.00,2013-05-08 05:00:00,
2013-05-08 00:04:00,54.7,50.0,29.94,South,187,0.0,0.0,84,0.00,,---,0.00,0.00,VWS V14.00,2013-05-08 05:04:00,
2013-05-08 00:09:00,54.5,49.8,29.94,South,187,0.0,0.0,84,0.00,,---,0.00,0.00,VWS V14.00,2013-05-08 05:09:00,
2013-05-08 00:14:00,54.3,49.9,29.94,South,187,0.0,0.0,85,0.00,,---,0.00,0.00,VWS V14.00,2013-05-08 05:14:00,
2013-05-08 00:19:00,54.1,49.4,29.94,South,187,0.0,0.0,84,0.00,,---,0.00,0.00,VWS V14.00,2013-05-08 05:19:00,
2013-05-08 00:24:00,54.0,49.9,29.94,South,187,0.0,0.0,86,0.00,,---,0.00,0.00,VWS V14.00,2013-05-08 05:24:00,
2013-05-08 00:29:00,53.9,50.4,29.94,South,187,0.0,0.0,88,0.00,,---,0.00,0.00,VWS V14.00,2013-05-08 05:29:00,
2013-05-08 00:30:00,53.9,50.1,29.94,South,187,0.0,0.0,87,0.00,,---,0.00,0.00,VWS V14.00,2013-05-08 05:30:00,
2013-05-08 00:34:00,53.7,49.6,29.94,South,187,0.0,0.0,86,0.00,,---,0.00,0.00,VWS V14.00,2013-05-08 05:34:00,
2013-05-08 00:39:00,53.6,49.8,29.94,South,187,0.0,0.0,87,0.00,,---,0.00,0.00,VWS V14.00,2013-05-08 05:39:00,
2013-05-08 00:44:00,53.5,49.7,29.94,South,187,0.0,0.0,87,0.00,,---,0.00,0.00,VWS V14.00,2013-05-08 05:44:00,
2013-05-08 00:50:00,53.3,49.2,29.94,South,187,0.0,0.0,86,0.00,,---,0.00,0.00,VWS V14.00,2013-05-08 05:50:00,
2013-05-08 00:55:00,53.3,49.5,29.94,South,187,0.0,0.0,87,0.00,,---,0.00,0.00,VWS V14.00,2013-05-08 05:55:00,
2013-05-08 01:00:00,53.4,49.9,29.94,South,187,0.0,0.0,88,0.00,,---,0.00,0.00,VWS V14.00,2013-05-08 06:00:00,
2013-05-08 01:05:00,53.4,49.9,29.94,South,187,0.0,0.0,88,0.00,,---,0.00,0.00,VWS V14.00,2013-05-08 06:05:00,
2013-05-08 01:10:00,53.4,49.9,29.94,South,187,0.0,0.0,88,0.00,,---,0.00,0.00,VWS V14.00,2013-05-08 06:10:00,
2013-05-08 01:15:00,53.4,49.9,29.94,South,187,0.0,0.0,88,0.00,,---,0.00,0.00,VWS V14.00,2013-05-08 06:15:00,
2013-05-08 01:20:00,53.4,49.3,29.94,South,187,0.0,0.0,86,0.00,,---,0.00,0.00,VWS V14.00,2013-05-08 06:20:00,
2013-05-08 01:25:00,53.4,49.3,29.94,South,187,0.0,0.0,86,0.00,,---,0.00,0.00,VWS V14.00,2013-05-08 06:25:00,
2013-05-08 01:30:00,53.5,49.4,29.94,South,187,0.0,0.0,86,0.00,,---,0.00,0.00,VWS V14.00,2013-05-08 06:30:00,
2013-05-08 01:35:00,53.7,49.9,29.94,South,187,0.0,0.0,87,0.00,,---,0.00,0.00,VWS V14.00,2013-05-08 06:35:00,
2013-05-08 01:40:00,53.8,50.0,29.94,South,187,0.0,0.0,87,0.00,,---,0.00,0.00,VWS V14.00,2013-05-08 06:40:00,
2013-05-08 01:46:00,54.0,50.5,29.93,South,187,0.0,0.0,88,0.00,,---,0.00,0.00,VWS V14.00,2013-05-08 06:46:00,
2013-05-08 01:51:00,54.2,51.0,29.93,South,187,0.0,0.0,89,0.00,,---,0.00,0.00,VWS V14.00,2013-05-08 06:51:00,
2013-05-08 01:56:00,54.4,51.2,29.93,South,187,0.0,0.0,89,0.00,,---,0.00,0.00,VWS V14.00,2013-05-08 06:56:00,
2013-05-08 02:00:00,54.4,50.9,29.94,South,187,0.0,0.0,88,0.00,,---,0.00,0.00,VWS V14.00,2013-05-08 07:00:00,
2013-05-08 02:01:00,54.4,50.6,29.94,South,187,0.0,0.0,87,0.00,,---,0.00,0.00,VWS V14.00,2013-05-08 07:01:00,
2013-05-08 02:06:00,54.4,50.6,29.93,South,187,0.0,0.0,87,0.00,,---,0.00,0.00,VWS V14.00,2013-05-08 07:06:00,
2013-05-08 02:11:00,54.5,51.0,29.93,South,187,0.0,0.0,88,0.00,,---,0.00,0.00,VWS V14.00,2013-05-08 07:11:00,
2013-05-08 02:16:00,54.6,50.8,29.93,South,187,0.0,0.0,87,0.00,,---,0.00,0.00,VWS V14.00,2013-05-08 07:16:00,
2013-05-08 02:21:00,54.6,50.8,29.93,South,187,0.0,0.0,87,0.00,,---,0.00,0.00,VWS V14.00,2013-05-08 07:21:00,
2013-05-08 02:26:00,54.6,50.5,29.94,South,187,0.0,0.0,86,0.00,,---,0.00,0.00,VWS V14.00,2013-05-08 07:26:00,
2013-05-08 02:30:00,54.6,50.5,29.94,South,187,0.0,0.0,86,0.00,,---,0.00,0.00,VWS V14.00,2013-05-08 07:30:00,
2013-05-08 02:31:00,54.7,50.9,29.93,South,187,0.0,0.0,87,0.00,,---,0.00,0.00,VWS V14.00,2013-05-08 07:31:00,
2013-05-08 02:36:00,54.8,51.6,29.94,South,187,0.0,0.0,89,0.00,,---,0.00,0.00,VWS V14.00,2013-05-08 07:36:00,
2013-05-08 02:42:00,54.9,51.4,29.94,South,187,0.0,0.0,88,0.00,,---,0.00,0.00,VWS V14.00,2013-05-08 07:42:00,
2013-05-08 02:47:00,55.0,51.5,29.94,South,187,0.0,0.0,88,0.00,,---,0.00,0.00,VWS V14.00,2013-05-08 07:47:00,
2013-05-08 02:52:00,55.0,51.5,29.94,South,187,0.0,0.0,88,0.00,,---,0.00,0.00,VWS V14.00,2013-05-08 07:52:00,
2013-05-08 02:57:00,55.1,51.9,29.94,South,187,0.0,0.0,89,0.00,,---,0.00,0.00,VWS V14.00,2013-05-08 07:57:00,
2013-05-08 03:00:00,55.1,51.9,29.94,South,187,0.0,0.0,89,0.00,,---,0.00,0.00,VWS V14.00,2013-05-08 08:00:00,
2013-05-08 03:02:00,55.1,51.6,29.94,South,187,0.0,0.0,88,0.00,,---,0.00,0.00,VWS V14.00,2013-05-08 08:02:00,
2013-05-08 03:07:00,55.0,51.2,29.94,South,187,0.0,0.0,87,0.00,,---,0.00,0.00,VWS V14.00,2013-05-08 08:07:00,
2013-05-08 03:12:00,55.0,51.2,29.94,South,187,0.0,0.0,87,0.00,,---,0.00,0.00,VWS V14.00,2013-05-08 08:12:00,
2013-05-08 03:17:00,55.0,51.5,29.94,South,187,0.0,0.0,88,0.00,,---,0.00,0.00,VWS V14.00,2013-05-08 08:17:00,
2013-05-08 03:22:00,55.0,51.2,29.94,South,187,1.0,2.0,87,0.00,,---,0.00,0.00,VWS V14.00,2013-05-08 08:22:00,
2013-05-08 03:27:00,55.0,50.9,29.93,South,188,0.0,0.0,86,0.00,,---,0.00,0.00,VWS V14.00,2013-05-08 08:27:00,
2013-05-08 03:30:00,55.0,50.9,29.94,South,188,0.0,2.0,86,0.00,,---,0.00,0.00,VWS V14.00,2013-05-08 08:30:00,
2013-05-08 03:33:00,55.3,51.5,29.94,South,188,0.0,2.0,87,0.00,,---,0.00,0.00,VWS V14.00,2013-05-08 08:33:00,
2013-05-08 03:38:00,55.5,51.1,29.93,South,188,0.0,2.0,85,0.00,,---,0.00,0.00,VWS V14.00,2013-05-08 08:38:00,
2013-05-08 03:43:00,55.8,51.7,29.94,South,188,0.0,2.0,86,0.00,,---,0.00,0.00,VWS V14.00,2013-05-08 08:43:00,
2013-05-08 03:48:00,55.9,51.5,29.94,South,188,0.0,2.0,85,0.00,,---,0.00,0.00,VWS V14.00,2013-05-08 08:48:00,
2013-05-08 03:53:00,55.9,51.5,29.94,South,188,0.0,2.0,85,0.00,,---,0.00,0.00,VWS V14.00,2013-05-08 08:53:00,
2013-05-08 03:58:00,55.9,51.5,29.94,South,188,0.0,0.0,85,0.00,,---,0.00,0.00,VWS V14.00,2013-05-08 08:58:00,
2013-05-08 04:00:00,55.9,51.5,29.94,South,188,0.0,2.0,85,0.00,,---,0.00,0.00,VWS V14.00,2013-05-08 09:00:00,
2013-05-08 04:03:00,55.8,51.0,29.94,South,188,0.0,0.0,84,0.00,,---,0.00,0.00,VWS V14.00,2013-05-08 09:03:00,
2013-05-08 04:08:00,55.7,50.6,29.94,South,188,0.0,0.0,83,0.00,,---,0.00,0.00,VWS V14.00,2013-05-08 09:08:00,
2013-05-08 04:13:00,56.0,50.6,29.94,South,188,0.0,0.0,82,0.00,,---,0.00,0.00,VWS V14.00,2013-05-08 09:13:00,
2013-05-08 04:18:00,56.3,50.9,29.94,South,188,0.0,0.0,82,0.00,,---,0.00,0.00,VWS V14.00,2013-05-08 09:18:00,
2013-05-08 04:23:00,56.4,51.0,29.93,South,188,0.0,0.0,82,0.00,,---,0.00,0.00,VWS V14.00,2013-05-08 09:23:00,
2013-05-08 04:29:00,56.4,51.3,29.93,South,188,0.0,0.0,83,0.00,,---,0.00,0.00,VWS V14.00,2013-05-08 09:29:00,
2013-05-08 04:30:00,56.4,51.3,29.93,South,188,0.0,0.0,83,0.00,,---,0.00,0.00,VWS V14.00,2013-05-08 09:30:00,
2013-05-08 04:34:00,56.3,51.9,29.93,South,188,0.0,0.0,85,0.00,,---,0.00,0.00,VWS V14.00,2013-05-08 09:34:00,
2013-05-08 04:39:00,56.2,51.8,29.94,South,188,0.0,0.0,85,0.00,,---,0.00,0.00,VWS V14.00,2013-05-08 09:39:00,
2013-05-08 04:44:00,56.0,51.6,29.94,South,188,0.0,0.0,85,0.00,,---,0.00,0.00,VWS V14.00,2013-05-08 09:44:00,
2013-05-08 04:49:00,55.9,51.5,29.94,South,188,0.0,0.0,85,0.00,,---,0.00,0.00,VWS V14.00,2013-05-08 09:49:00,
2013-05-08 04:54:00,55.7,51.9,29.93,South,188,0.0,0.0,87,0.00,,---,0.00,0.00,VWS V14.00,2013-05-08 09:54:00,
2013-05-08 04:59:00,55.5,51.4,29.94,South,188,0.0,0.0,86,0.00,,---,0.00,0.00,VWS V14.00,2013-05-08 09:59:00,
2013-05-08 05:00:00,55.6,51.8,29.93,South,188,0.0,0.0,87,0.00,,---,0.00,0.00,VWS V14.00,2013-05-08 10:00:00,
2013-05-08 05:04:00,55.3,51.2,29.94,South,188,0.0,0.0,86,0.00,,---,0.00,0.00,VWS V14.00,2013-05-08 10:04:00,
2013-05-08 05:09:00,55.1,51.0,29.94,South,188,0.0,0.0,86,0.00,,---,0.00,0.00,VWS V14.00,2013-05-08 10:09:00,
2013-05-08 05:14:00,55.0,50.9,29.94,South,188,0.0,0.0,86,0.00,,---,0.00,0.00,VWS V14.00,2013-05-08 10:14:00,
2013-05-08 05:20:00,54.9,51.1,29.94,South,188,0.0,0.0,87,0.00,,---,0.00,0.00,VWS V14.00,2013-05-08 10:20:00,
2013-05-08 05:25:00,54.9,51.4,29.94,South,188,0.0,0.0,88,0.00,,---,0.00,0.00,VWS V14.00,2013-05-08 10:25:00,
2013-05-08 05:30:00,54.8,51.3,29.94,South,188,0.0,0.0,88,0.00,,---,0.00,0.00,VWS V14.00,2013-05-08 10:30:00,
2013-05-08 05:35:00,54.7,51.2,29.94,South,189,0.0,0.0,88,0.00,,---,0.00,0.00,VWS V14.00,2013-05-08 10:35:00,
2013-05-08 05:40:00,54.5,51.0,29.94,South,189,0.0,0.0,88,0.00,,---,0.00,0.00,VWS V14.00,2013-05-08 10:40:00,
2013-05-08 05:45:00,54.4,50.9,29.94,South,189,0.0,0.0,88,0.00,,---,0.00,0.00,VWS V14.00,2013-05-08 10:45:00,
2013-05-08 05:50:00,54.3,50.8,29.94,South,189,0.0,0.0,88,0.00,,---,0.00,0.00,VWS V14.00,2013-05-08 10:50:00,
2013-05-08 05:55:00,54.2,50.7,29.94,South,189,0.0,0.0,88,0.00,,---,0.00,0.00,VWS V14.00,2013-05-08 10:55:00,
2013-05-08 06:00:00,54.1,50.6,29.95,South,189,0.0,0.0,88,0.00,,---,0.00,0.00,VWS V14.00,2013-05-08 11:00:00,
2013-05-08 06:05:00,54.0,50.5,29.95,South,189,0.0,0.0,88,0.00,,---,0.00,0.00,VWS V14.00,2013-05-08 11:05:00,
2013-05-08 06:11:00,54.0,50.8,29.95,South,189,0.0,0.0,89,0.00,,---,0.00,5.00,VWS V14.00,2013-05-08 11:11:00,
2013-05-08 06:16:00,54.1,51.2,29.95,South,189,0.0,0.0,90,0.00,,---,0.00,7.00,VWS V14.00,2013-05-08 11:16:00,
2013-05-08 06:21:00,54.1,51.2,29.94,South,189,0.0,0.0,90,0.00,,---,0.00,12.00,VWS V14.00,2013-05-08 11:21:00,
2013-05-08 06:26:00,54.2,51.6,29.94,South,189,0.0,0.0,91,0.00,,---,0.00,19.00,VWS V14.00,2013-05-08 11:26:00,
2013-05-08 06:30:00,54.2,51.3,29.94,South,189,0.0,0.0,90,0.00,,---,0.00,19.00,VWS V14.00,2013-05-08 11:30:00,
2013-05-08 06:31:00,54.2,51.3,29.95,South,189,0.0,0.0,90,0.00,,---,0.00,25.00,VWS V14.00,2013-05-08 11:31:00,
2013-05-08 06:36:00,54.2,51.3,29.95,South,189,0.0,0.0,90,0.00,,---,0.00,32.00,VWS V14.00,2013-05-08 11:36:00,
2013-05-08 06:41:00,54.2,51.3,29.95,South,189,0.0,0.0,90,0.00,,---,0.00,37.00,VWS V14.00,2013-05-08 11:41:00,
2013-05-08 06:46:00,54.3,51.4,29.95,South,189,0.0,0.0,90,0.00,,---,0.00,46.00,VWS V14.00,2013-05-08 11:46:00,
2013-05-08 06:51:00,54.5,51.9,29.95,South,189,0.0,0.0,91,0.00,,---,0.00,51.00,VWS V14.00,2013-05-08 11:51:00,
2013-05-08 06:56:00,54.7,52.1,29.95,South,189,0.0,0.0,91,0.00,,---,0.00,54.00,VWS V14.00,2013-05-08 11:56:00,
2013-05-08 07:00:00,54.7,52.1,29.95,South,189,0.0,0.0,91,0.00,,---,0.00,56.00,VWS V14.00,2013-05-08 12:00:00,
2013-05-08 07:01:00,54.8,51.9,29.95,South,189,0.0,0.0,90,0.00,,---,0.00,62.00,VWS V14.00,2013-05-08 12:01:00,
2013-05-08 07:06:00,55.0,52.4,29.95,South,189,0.0,0.0,91,0.00,,---,0.00,65.00,VWS V14.00,2013-05-08 12:06:00,
2013-05-08 07:12:00,55.2,52.6,29.95,South,189,0.0,0.0,91,0.00,,---,0.00,74.00,VWS V14.00,2013-05-08 12:12:00,
2013-05-08 07:17:00,55.5,52.3,29.95,South,189,0.0,0.0,89,0.00,,---,0.00,72.00,VWS V14.00,2013-05-08 12:17:00,
2013-05-08 07:22:00,55.8,52.6,29.95,South,189,0.0,0.0,89,0.00,,---,0.00,69.00,VWS V14.00,2013-05-08 12:22:00,
2013-05-08 07:27:00,56.1,53.2,29.95,South,189,0.0,0.0,90,0.00,,---,0.00,62.00,VWS V14.00,2013-05-08 12:27:00,
2013-05-08 07:30:00,56.1,53.2,29.95,South,189,0.0,0.0,90,0.00,,---,0.00,62.00,VWS V14.00,2013-05-08 12:30:00,
2013-05-08 08:00:00,58.9,53.8,29.97,South,180,0.0,2.0,83,0.00,,---,0.00,99.00,VWS V14.00,2013-05-08 13:00:00,
2013-05-08 08:30:00,62.1,53.3,29.96,South,180,0.0,3.0,73,0.00,,---,0.00,163.00,VWS V14.00,2013-05-08 13:30:00,
2013-05-08 09:00:00,63.9,53.1,29.97,NNE,22,1.0,3.0,68,0.00,,---,0.00,199.00,VWS V14.00,2013-05-08 14:00:00,
2013-05-08 09:30:00,65.4,53.3,29.97,NNW,338,1.0,4.0,65,0.00,,---,0.00,263.00,VWS V14.00,2013-05-08 14:30:00,
2013-05-08 10:00:00,66.7,52.8,29.97,NE,45,1.0,4.0,61,0.00,,---,0.00,281.00,VWS V14.00,2013-05-08 15:00:00,
2013-05-08 10:30:00,67.9,52.6,29.96,NE,45,1.0,4.0,58,0.00,,---,0.00,309.00,VWS V14.00,2013-05-08 15:30:00,
2013-05-08 11:00:00,69.5,53.1,29.96,NNE,22,2.0,7.0,56,0.00,,---,0.00,424.00,VWS V14.00,2013-05-08 16:00:00,
2013-05-08 11:30:00,72.7,51.3,29.95,NE,45,2.0,7.0,47,0.00,,---,0.00,749.00,VWS V14.00,2013-05-08 16:30:00,
2013-05-08 12:00:00,73.0,50.4,29.96,NNE,22,1.0,7.0,45,0.00,,---,0.00,481.00,VWS V14.00,2013-05-08 17:00:00,
2013-05-08 12:30:00,73.5,50.3,29.95,SSE,158,0.0,5.0,44,0.00,,---,0.00,374.00,VWS V14.00,2013-05-08 17:30:00,
2013-05-08 13:00:00,74.4,51.1,29.94,NNE,22,0.0,6.0,44,0.00,,---,0.00,407.00,VWS V14.00,2013-05-08 18:00:00,
2013-05-08 13:30:00,75.7,52.3,29.93,SSE,158,0.0,3.0,44,0.00,,---,0.00,389.00,VWS V14.00,2013-05-08 18:30:00,
2013-05-08 14:00:00,74.8,50.2,29.93,South,180,0.0,4.0,42,0.00,,---,0.00,252.00,VWS V14.00,2013-05-08 19:00:00,
2013-05-08 14:30:00,74.1,50.8,29.93,South,180,0.0,2.0,44,0.00,,---,0.00,145.00,VWS V14.00,2013-05-08 19:30:00,
2013-05-08 15:00:00,73.9,50.6,29.93,South,180,0.0,1.0,44,0.00,,---,0.00,118.00,VWS V14.00,2013-05-08 20:00:00,
2013-05-08 15:30:00,73.6,50.4,29.93,South,180,0.0,3.0,44,0.00,,---,0.00,136.00,VWS V14.00,2013-05-08 20:30:00,
2013-05-08 16:00:00,72.8,52.0,29.92,SW,225,0.0,2.0,48,0.00,,---,0.00,135.00,VWS V14.00,2013-05-08 21:00:00,
2013-05-08 16:30:00,72.6,50.7,29.91,West,270,0.0,3.0,46,0.00,,---,0.00,145.00,VWS V14.00,2013-05-08 21:30:00,
2013-05-08 17:00:00,72.3,51.0,29.91,WNW,292,2.0,9.0,47,0.00,,---,0.00,140.00,VWS V14.00,2013-05-08 22:00:00,
2013-05-08 17:30:00,71.4,52.9,29.90,North,0,4.0,10.0,52,0.00,,---,0.00,208.00,VWS V14.00,2013-05-08 22:30:00,
2013-05-08 18:00:00,69.5,52.6,29.91,NNW,338,5.0,15.0,55,0.00,,---,0.00,114.00,VWS V14.00,2013-05-08 23:00:00,
2013-05-08 18:30:00,66.4,56.3,29.96,SSW,202,1.0,6.0,70,0.00,,---,0.01,9.00,VWS V14.00,2013-05-08 23:30:00,
2013-05-08 19:00:00,60.5,56.6,29.95,WSW,248,0.0,2.0,87,0.91,,---,0.19,7.00,VWS V14.00,2013-05-09 00:00:00,
2013-05-08 19:30:00,58.6,56.3,29.93,NNW,338,3.0,7.0,92,0.39,,---,0.24,16.00,VWS V14.00,2013-05-09 00:30:00,
2013-05-08 20:00:00,59.0,56.1,29.93,NNW,338,3.0,8.0,90,0.00,,---,0.24,11.00,VWS V14.00,2013-05-09 01:00:00,
2013-05-08 20:30:00,59.6,56.0,29.94,NNW,338,3.0,9.0,88,0.00,,---,0.24,1.00,VWS V14.00,2013-05-09 01:30:00,
2013-05-08 21:00:00,59.6,56.0,29.95,North,0,2.0,7.0,88,0.00,,---,0.24,0.00,VWS V14.00,2013-05-09 02:00:00,
2013-05-08 21:30:00,59.0,56.1,29.97,NNE,22,1.0,4.0,90,0.00,,---,0.24,0.00,VWS V14.00,2013-05-09 02:30:00,
2013-05-08 22:00:00,58.2,55.9,29.98,NNE,22,0.0,1.0,92,0.00,,---,0.24,0.00,VWS V14.00,2013-05-09 03:00:00,
2013-05-08 22:30:00,57.6,55.9,29.98,NNE,22,0.0,0.0,94,0.00,,---,0.24,0.00,VWS V14.00,2013-05-09 03:30:00,
2013-05-08 23:00:00,57.4,56.0,29.98,NNE,22,0.0,0.0,95,0.19,,---,0.26,0.00,VWS V14.00,2013-05-09 04:00:00,
2013-05-08 23:30:00,57.4,56.0,29.98,NNE,22,0.0,0.0,95,0.05,,---,0.27,0.00,VWS V14.00,2013-05-09 04:30:00,